Terminal Aerodrome Forecast
Issued by NWS Grand Forks, ND

Home | Current Version | Previous Version | Graphics & Text | Print | Product List | Glossary On
Versions: 1 2 3 4 5 6 7 8 9 10 11 12 13 14 15 16 17 18 19 20 21
801
FTUS43 KFGF 242320
TAFGFK
TAF
KGFK 242320Z 2500/2524 01016KT P6SM -DZ OVC005
     FM250200 36014KT 5SM BR OVC003
     FM250900 35014KT P6SM OVC005
     FM251700 01017KT P6SM OVC010
     FM252300 02017KT P6SM OVC020=

USA.gov is the U.S. government's official web portal to all federal, state and local government web resources and services.